sensor_id;sensor_type;location;lat;lon;timestamp;pressure;altitude;pressure_sealevel;temperature;humidity
550;BME280;20066;48.764;9.176;2023-05-12T00:01:33;97902.47;;;13.81;72.96
550;BME280;20066;48.764;9.176;2023-05-12T00:04:01;97897.59;;;14.19;72.71
550;BME280;20066;48.764;9.176;2023-05-12T00:06:29;97898.81;;;13.91;74.79
550;BME280;20066;48.764;9.176;2023-05-12T00:08:57;97899.56;;;13.45;75.92
550;BME280;20066;48.764;9.176;2023-05-12T00:11:26;97895.47;;;14.07;73.35
550;BME280;20066;48.764;9.176;2023-05-12T00:13:54;97888.03;;;14.54;71.14
550;BME280;20066;48.764;9.176;2023-05-12T00:16:22;97886.19;;;13.85;71.53
550;BME280;20066;48.764;9.176;2023-05-12T00:18:49;97887.19;;;13.95;74.94
550;BME280;20066;48.764;9.176;2023-05-12T00:21:18;97880.22;;;13.24;75.65
550;BME280;20066;48.764;9.176;2023-05-12T00:23:46;97883.31;;;13.22;76.08
550;BME280;20066;48.764;9.176;2023-05-12T00:26:14;97881.06;;;13.44;75.91
550;BME280;20066;48.764;9.176;2023-05-12T00:28:44;97883.78;;;13.90;73.32
550;BME280;20066;48.764;9.176;2023-05-12T00:31:13;97882.13;;;13.23;75.94
550;BME280;20066;48.764;9.176;2023-05-12T00:33:41;97877.59;;;13.17;76.58
550;BME280;20066;48.764;9.176;2023-05-12T00:36:08;97883.47;;;13.38;76.14
550;BME280;20066;48.764;9.176;2023-05-12T00:38:36;97881.78;;;13.48;76.44
550;BME280;20066;48.764;9.176;2023-05-12T00:41:04;97880.47;;;14.06;73.05
550;BME280;20066;48.764;9.176;2023-05-12T00:43:32;97874.56;;;14.31;71.35
550;BME280;20066;48.764;9.176;2023-05-12T00:46:01;97886.59;;;13.83;75.37
550;BME280;20066;48.764;9.176;2023-05-12T00:48:31;97880.81;;;13.35;75.52
550;BME280;20066;48.764;9.176;2023-05-12T00:50:59;97882.25;;;13.43;76.12
550;BME280;20066;48.764;9.176;2023-05-12T00:53:30;97878.19;;;13.04;79.00
550;BME280;20066;48.764;9.176;2023-05-12T00:56:15;97880.72;;;12.85;79.80
550;BME280;20066;48.764;9.176;2023-05-12T00:58:44;97882.03;;;13.57;76.23
550;BME280;20066;48.764;9.176;2023-05-12T01:01:13;97885.13;;;14.02;72.69
550;BME280;20066;48.764;9.176;2023-05-12T01:03:41;97883.53;;;13.35;76.19
550;BME280;20066;48.764;9.176;2023-05-12T01:06:13;97888.34;;;13.47;76.62
550;BME280;20066;48.764;9.176;2023-05-12T01:08:43;97884.59;;;13.64;78.48
550;BME280;20066;48.764;9.176;2023-05-12T01:11:11;97876.66;;;14.43;73.68
550;BME280;20066;48.764;9.176;2023-05-12T01:13:39;97871.22;;;13.30;76.82
550;BME280;20066;48.764;9.176;2023-05-12T01:16:08;97882.16;;;12.96;79.32
550;BME280;20066;48.764;9.176;2023-05-12T01:18:42;97875.41;;;13.08;80.40
550;BME280;20066;48.764;9.176;2023-05-12T01:21:15;97878.41;;;13.67;78.14
550;BME280;20066;48.764;9.176;2023-05-12T01:23:50;97877.91;;;14.39;74.38
550;BME280;20066;48.764;9.176;2023-05-12T01:26:22;97879.34;;;14.83;71.62
550;BME280;20066;48.764;9.176;2023-05-12T01:28:50;97876.72;;;14.59;72.80
550;BME280;20066;48.764;9.176;2023-05-12T01:31:19;97870.63;;;13.69;77.62
550;BME280;20066;48.764;9.176;2023-05-12T01:33:47;97874.88;;;13.20;77.52
550;BME280;20066;48.764;9.176;2023-05-12T01:36:14;97870.91;;;14.21;75.01
550;BME280;20066;48.764;9.176;2023-05-12T01:38:42;97876.22;;;14.25;72.90
550;BME280;20066;48.764;9.176;2023-05-12T01:41:10;97879.50;;;14.36;74.36
550;BME280;20066;48.764;9.176;2023-05-12T01:43:39;97875.72;;;14.70;71.80
550;BME280;20066;48.764;9.176;2023-05-12T01:46:06;97872.16;;;14.56;72.51
550;BME280;20066;48.764;9.176;2023-05-12T01:48:36;97881.38;;;14.39;73.74
550;BME280;20066;48.764;9.176;2023-05-12T01:51:06;97880.84;;;14.84;69.87
550;BME280;20066;48.764;9.176;2023-05-12T01:53:33;97878.16;;;13.81;74.43
550;BME280;20066;48.764;9.176;2023-05-12T01:56:01;97872.72;;;14.28;71.88
550;BME280;20066;48.764;9.176;2023-05-12T01:58:29;97871.25;;;14.00;75.67
550;BME280;20066;48.764;9.176;2023-05-12T02:00:58;97868.50;;;14.04;75.00
550;BME280;20066;48.764;9.176;2023-05-12T02:03:26;97879.00;;;13.28;78.64
550;BME280;20066;48.764;9.176;2023-05-12T02:05:54;97876.31;;;13.98;77.66
550;BME280;20066;48.764;9.176;2023-05-12T02:08:22;97880.63;;;12.61;81.12
550;BME280;20066;48.764;9.176;2023-05-12T02:10:49;97878.97;;;12.71;82.01
550;BME280;20066;48.764;9.176;2023-05-12T02:13:17;97876.75;;;12.96;80.34
550;BME280;20066;48.764;9.176;2023-05-12T02:15:45;97876.84;;;13.66;79.33
550;BME280;20066;48.764;9.176;2023-05-12T02:18:14;97876.19;;;13.08;81.40
550;BME280;20066;48.764;9.176;2023-05-12T02:20:41;97878.66;;;13.96;76.70
550;BME280;20066;48.764;9.176;2023-05-12T02:23:09;97872.00;;;13.31;79.33
550;BME280;20066;48.764;9.176;2023-05-12T02:25:37;97874.38;;;13.52;77.82
550;BME280;20066;48.764;9.176;2023-05-12T02:28:04;97868.22;;;13.25;78.20
550;BME280;20066;48.764;9.176;2023-05-12T02:30:36;97878.31;;;13.71;79.56
550;BME280;20066;48.764;9.176;2023-05-12T02:33:03;97875.41;;;13.35;80.77
550;BME280;20066;48.764;9.176;2023-05-12T02:35:33;97865.06;;;14.00;76.95
550;BME280;20066;48.764;9.176;2023-05-12T02:38:00;97869.16;;;14.11;73.84
550;BME280;20066;48.764;9.176;2023-05-12T02:40:28;97871.22;;;14.04;76.83
550;BME280;20066;48.764;9.176;2023-05-12T02:42:55;97871.09;;;13.87;75.39
550;BME280;20066;48.764;9.176;2023-05-12T02:45:23;97869.38;;;13.97;76.77
550;BME280;20066;48.764;9.176;2023-05-12T02:47:51;97868.66;;;13.46;77.86
550;BME280;20066;48.764;9.176;2023-05-12T02:50:19;97867.50;;;13.94;77.00
550;BME280;20066;48.764;9.176;2023-05-12T02:52:49;97867.63;;;13.13;78.46
550;BME280;20066;48.764;9.176;2023-05-12T02:55:17;97868.75;;;12.89;83.56
550;BME280;20066;48.764;9.176;2023-05-12T02:57:45;97861.09;;;13.11;79.96
550;BME280;20066;48.764;9.176;2023-05-12T03:00:13;97866.94;;;13.83;76.66
550;BME280;20066;48.764;9.176;2023-05-12T03:02:41;97869.72;;;13.99;76.01
550;BME280;20066;48.764;9.176;2023-05-12T03:05:09;97864.28;;;14.22;73.72
550;BME280;20066;48.764;9.176;2023-05-12T03:07:37;97875.75;;;14.30;73.88
550;BME280;20066;48.764;9.176;2023-05-12T03:10:07;97869.03;;;14.58;73.25
550;BME280;20066;48.764;9.176;2023-05-12T03:12:35;97873.13;;;12.76;80.24
550;BME280;20066;48.764;9.176;2023-05-12T03:15:03;97876.53;;;13.61;79.65
550;BME280;20066;48.764;9.176;2023-05-12T03:17:32;97875.56;;;12.33;82.58
550;BME280;20066;48.764;9.176;2023-05-12T03:19:59;97874.91;;;13.17;79.74
550;BME280;20066;48.764;9.176;2023-05-12T03:22:27;97874.75;;;13.27;79.42
550;BME280;20066;48.764;9.176;2023-05-12T03:24:55;97879.84;;;13.22;80.54
550;BME280;20066;48.764;9.176;2023-05-12T03:27:24;97879.56;;;13.66;77.80
550;BME280;20066;48.764;9.176;2023-05-12T03:29:52;97873.66;;;12.98;78.30
550;BME280;20066;48.764;9.176;2023-05-12T03:32:19;97882.38;;;13.82;77.88
550;BME280;20066;48.764;9.176;2023-05-12T03:34:47;97867.59;;;13.67;77.10
550;BME280;20066;48.764;9.176;2023-05-12T03:37:15;97878.16;;;13.81;76.80
550;BME280;20066;48.764;9.176;2023-05-12T03:39:43;97883.66;;;14.41;73.93
550;BME280;20066;48.764;9.176;2023-05-12T03:42:10;97875.13;;;12.68;80.14
550;BME280;20066;48.764;9.176;2023-05-12T03:44:39;97875.97;;;12.96;82.58
550;BME280;20066;48.764;9.176;2023-05-12T03:47:08;97871.53;;;13.09;80.56
550;BME280;20066;48.764;9.176;2023-05-12T03:49:35;97873.66;;;12.64;82.31
550;BME280;20066;48.764;9.176;2023-05-12T03:52:03;97868.66;;;12.28;83.55
550;BME280;20066;48.764;9.176;2023-05-12T03:54:31;97868.63;;;13.73;78.34
550;BME280;20066;48.764;9.176;2023-05-12T03:57:01;97871.69;;;13.25;78.58
550;BME280;20066;48.764;9.176;2023-05-12T03:59:29;97868.56;;;12.69;82.92
550;BME280;20066;48.764;9.176;2023-05-12T04:01:58;97853.03;;;13.07;82.30
550;BME280;20066;48.764;9.176;2023-05-12T04:04:27;97862.59;;;13.66;78.74
550;BME280;20066;48.764;9.176;2023-05-12T04:06:55;97873.19;;;13.76;77.50
550;BME280;20066;48.764;9.176;2023-05-12T04:09:22;97863.25;;;12.66;83.10
550;BME280;20066;48.764;9.176;2023-05-12T04:11:50;97865.03;;;13.80;78.64
550;BME280;20066;48.764;9.176;2023-05-12T04:14:18;97863.78;;;13.38;77.18
550;BME280;20066;48.764;9.176;2023-05-12T04:17:02;97869.56;;;13.63;76.97
550;BME280;20066;48.764;9.176;2023-05-12T04:19:30;97867.56;;;13.44;77.87
550;BME280;20066;48.764;9.176;2023-05-12T04:21:57;97869.06;;;13.91;76.90
550;BME280;20066;48.764;9.176;2023-05-12T04:24:25;97872.03;;;14.44;74.02
550;BME280;20066;48.764;9.176;2023-05-12T04:26:53;97865.75;;;14.27;74.58
550;BME280;20066;48.764;9.176;2023-05-12T04:29:21;97876.44;;;14.34;74.05
550;BME280;20066;48.764;9.176;2023-05-12T04:31:48;97884.13;;;13.46;74.29
550;BME280;20066;48.764;9.176;2023-05-12T04:34:17;97878.22;;;13.28;78.12
550;BME280;20066;48.764;9.176;2023-05-12T04:36:45;97875.69;;;14.14;75.89
550;BME280;20066;48.764;9.176;2023-05-12T04:39:13;97881.38;;;14.59;72.26
550;BME280;20066;48.764;9.176;2023-05-12T04:41:41;97882.44;;;13.56;76.06
550;BME280;20066;48.764;9.176;2023-05-12T04:44:08;97880.97;;;13.24;79.97
550;BME280;20066;48.764;9.176;2023-05-12T04:46:36;97884.28;;;13.08;77.69
550;BME280;20066;48.764;9.176;2023-05-12T04:49:04;97882.19;;;13.46;80.75
550;BME280;20066;48.764;9.176;2023-05-12T04:51:33;97893.94;;;13.06;79.97
550;BME280;20066;48.764;9.176;2023-05-12T04:54:08;97889.03;;;13.28;79.85
550;BME280;20066;48.764;9.176;2023-05-12T04:56:36;97899.13;;;13.97;77.69
550;BME280;20066;48.764;9.176;2023-05-12T04:59:04;97897.94;;;12.98;79.25
550;BME280;20066;48.764;9.176;2023-05-12T05:01:31;97896.34;;;13.54;79.94
550;BME280;20066;48.764;9.176;2023-05-12T05:03:59;97889.91;;;13.44;75.59
550;BME280;20066;48.764;9.176;2023-05-12T05:06:27;97896.16;;;13.41;78.99
550;BME280;20066;48.764;9.176;2023-05-12T05:08:56;97900.06;;;14.10;74.28
550;BME280;20066;48.764;9.176;2023-05-12T05:11:24;97899.38;;;13.60;76.15
550;BME280;20066;48.764;9.176;2023-05-12T05:13:52;97900.19;;;13.80;76.32
550;BME280;20066;48.764;9.176;2023-05-12T05:16:20;97895.84;;;12.79;79.49
550;BME280;20066;48.764;9.176;2023-05-12T05:18:48;97892.00;;;13.06;81.27
550;BME280;20066;48.764;9.176;2023-05-12T05:21:16;97899.44;;;13.52;78.08
550;BME280;20066;48.764;9.176;2023-05-12T05:23:43;97904.13;;;13.52;78.71
550;BME280;20066;48.764;9.176;2023-05-12T05:26:12;97904.66;;;13.40;76.25
550;BME280;20066;48.764;9.176;2023-05-12T05:28:40;97903.16;;;13.85;74.31
550;BME280;20066;48.764;9.176;2023-05-12T05:31:13;97898.00;;;13.95;75.96
550;BME280;20066;48.764;9.176;2023-05-12T05:33:41;97904.00;;;13.05;79.18
550;BME280;20066;48.764;9.176;2023-05-12T05:36:09;97918.03;;;13.50;79.59
550;BME280;20066;48.764;9.176;2023-05-12T05:38:37;97913.06;;;13.72;75.17
550;BME280;20066;48.764;9.176;2023-05-12T05:41:05;97911.16;;;12.89;77.41
550;BME280;20066;48.764;9.176;2023-05-12T05:43:34;97918.88;;;13.17;78.78
550;BME280;20066;48.764;9.176;2023-05-12T05:46:02;97916.22;;;14.37;73.86
550;BME280;20066;48.764;9.176;2023-05-12T05:48:30;97919.13;;;14.86;70.41
550;BME280;20066;48.764;9.176;2023-05-12T05:50:58;97927.47;;;14.75;71.23
550;BME280;20066;48.764;9.176;2023-05-12T05:53:25;97915.88;;;14.35;73.48
550;BME280;20066;48.764;9.176;2023-05-12T05:55:53;97916.63;;;14.75;71.35
550;BME280;20066;48.764;9.176;2023-05-12T05:58:21;97917.13;;;15.26;69.25
550;BME280;20066;48.764;9.176;2023-05-12T06:00:50;97920.47;;;15.66;67.88
550;BME280;20066;48.764;9.176;2023-05-12T06:03:18;97924.47;;;15.45;66.95
550;BME280;20066;48.764;9.176;2023-05-12T06:05:45;97924.72;;;15.51;66.53
550;BME280;20066;48.764;9.176;2023-05-12T06:08:13;97923.56;;;14.96;68.32
550;BME280;20066;48.764;9.176;2023-05-12T06:10:41;97927.44;;;14.95;69.04
550;BME280;20066;48.764;9.176;2023-05-12T06:13:09;97926.00;;;14.71;70.56
550;BME280;20066;48.764;9.176;2023-05-12T06:15:37;97931.06;;;14.88;68.60
550;BME280;20066;48.764;9.176;2023-05-12T06:18:06;97933.34;;;14.50;69.21
550;BME280;20066;48.764;9.176;2023-05-12T06:20:34;97932.16;;;14.08;71.39
550;BME280;20066;48.764;9.176;2023-05-12T06:23:02;97934.59;;;14.85;69.51
550;BME280;20066;48.764;9.176;2023-05-12T06:25:31;97934.25;;;15.39;66.09
550;BME280;20066;48.764;9.176;2023-05-12T06:27:58;97933.94;;;16.02;64.17
550;BME280;20066;48.764;9.176;2023-05-12T06:30:26;97935.56;;;15.51;64.20
550;BME280;20066;48.764;9.176;2023-05-12T06:32:54;97938.84;;;14.86;66.90
550;BME280;20066;48.764;9.176;2023-05-12T06:35:24;97939.09;;;14.92;68.45
550;BME280;20066;48.764;9.176;2023-05-12T06:37:51;97935.81;;;15.72;65.31
550;BME280;20066;48.764;9.176;2023-05-12T06:40:19;97936.81;;;15.46;65.48
550;BME280;20066;48.764;9.176;2023-05-12T06:42:47;97934.84;;;15.47;65.59
550;BME280;20066;48.764;9.176;2023-05-12T06:45:16;97934.03;;;15.66;65.26
550;BME280;20066;48.764;9.176;2023-05-12T06:47:44;97932.50;;;15.65;65.02
550;BME280;20066;48.764;9.176;2023-05-12T06:50:12;97938.19;;;16.03;63.05
550;BME280;20066;48.764;9.176;2023-05-12T06:52:42;97945.25;;;15.84;62.67
550;BME280;20066;48.764;9.176;2023-05-12T06:55:10;97947.75;;;15.59;62.95
550;BME280;20066;48.764;9.176;2023-05-12T06:57:38;97942.50;;;16.00;61.63
550;BME280;20066;48.764;9.176;2023-05-12T07:00:07;97941.25;;;16.50;61.26
550;BME280;20066;48.764;9.176;2023-05-12T07:02:36;97950.97;;;16.02;62.34
550;BME280;20066;48.764;9.176;2023-05-12T07:05:04;97944.59;;;14.29;67.37
550;BME280;20066;48.764;9.176;2023-05-12T07:07:32;97944.28;;;15.58;65.05
550;BME280;20066;48.764;9.176;2023-05-12T07:10:02;97944.88;;;14.54;67.21
550;BME280;20066;48.764;9.176;2023-05-12T07:12:32;97942.00;;;15.01;67.71
550;BME280;20066;48.764;9.176;2023-05-12T07:14:59;97947.19;;;15.67;65.06
550;BME280;20066;48.764;9.176;2023-05-12T07:17:27;97948.63;;;16.21;62.18
550;BME280;20066;48.764;9.176;2023-05-12T07:19:55;97946.91;;;15.78;64.44
550;BME280;20066;48.764;9.176;2023-05-12T07:22:23;97938.19;;;16.19;63.31
550;BME280;20066;48.764;9.176;2023-05-12T07:24:51;97937.69;;;16.82;61.06
550;BME280;20066;48.764;9.176;2023-05-12T07:27:20;97938.94;;;15.55;64.60
550;BME280;20066;48.764;9.176;2023-05-12T07:29:48;97939.97;;;16.26;64.06
550;BME280;20066;48.764;9.176;2023-05-12T07:32:16;97934.50;;;15.28;65.42
550;BME280;20066;48.764;9.176;2023-05-12T07:34:43;97941.56;;;16.23;63.74
550;BME280;20066;48.764;9.176;2023-05-12T07:37:11;97942.00;;;15.73;64.91
550;BME280;20066;48.764;9.176;2023-05-12T07:39:39;97938.38;;;14.91;69.54
550;BME280;20066;48.764;9.176;2023-05-12T07:42:07;97939.63;;;16.24;65.27
550;BME280;20066;48.764;9.176;2023-05-12T07:44:36;97945.03;;;16.24;62.00
550;BME280;20066;48.764;9.176;2023-05-12T07:47:04;97942.16;;;16.31;63.52
550;BME280;20066;48.764;9.176;2023-05-12T07:49:32;97939.81;;;15.84;64.87
550;BME280;20066;48.764;9.176;2023-05-12T07:52:00;97937.97;;;16.42;63.98
550;BME280;20066;48.764;9.176;2023-05-12T07:54:28;97941.97;;;16.67;62.50
550;BME280;20066;48.764;9.176;2023-05-12T07:56:55;97936.38;;;16.45;62.20
550;BME280;20066;48.764;9.176;2023-05-12T07:59:23;97930.16;;;17.27;60.31
550;BME280;20066;48.764;9.176;2023-05-12T08:01:52;97932.25;;;15.43;65.06
550;BME280;20066;48.764;9.176;2023-05-12T08:04:20;97938.94;;;16.03;62.69
550;BME280;20066;48.764;9.176;2023-05-12T08:06:48;97936.72;;;17.01;59.78
550;BME280;20066;48.764;9.176;2023-05-12T08:09:16;97938.31;;;16.44;60.25
550;BME280;20066;48.764;9.176;2023-05-12T08:11:43;97936.72;;;16.88;59.27
550;BME280;20066;48.764;9.176;2023-05-12T08:14:15;97939.22;;;15.76;64.49
550;BME280;20066;48.764;9.176;2023-05-12T08:16:43;97939.13;;;15.64;63.21
550;BME280;20066;48.764;9.176;2023-05-12T08:19:13;97939.38;;;15.17;65.15
550;BME280;20066;48.764;9.176;2023-05-12T08:21:41;97939.31;;;16.50;62.70
550;BME280;20066;48.764;9.176;2023-05-12T08:24:08;97937.94;;;15.81;63.25
550;BME280;20066;48.764;9.176;2023-05-12T08:26:36;97929.06;;;17.25;60.63
550;BME280;20066;48.764;9.176;2023-05-12T08:29:04;97933.44;;;15.58;62.05
550;BME280;20066;48.764;9.176;2023-05-12T08:31:34;97931.56;;;16.78;59.38
550;BME280;20066;48.764;9.176;2023-05-12T08:34:03;97935.41;;;15.74;62.36
550;BME280;20066;48.764;9.176;2023-05-12T08:36:35;97938.31;;;16.73;57.55
550;BME280;20066;48.764;9.176;2023-05-12T08:39:03;97932.09;;;15.66;61.41
550;BME280;20066;48.764;9.176;2023-05-12T08:41:38;97946.31;;;16.64;58.56
550;BME280;20066;48.764;9.176;2023-05-12T08:44:08;97947.50;;;16.63;59.57
550;BME280;20066;48.764;9.176;2023-05-12T08:46:37;97943.00;;;16.85;57.47
550;BME280;20066;48.764;9.176;2023-05-12T08:49:05;97946.47;;;17.40;57.14
550;BME280;20066;48.764;9.176;2023-05-12T08:51:39;97945.34;;;16.42;60.02
550;BME280;20066;48.764;9.176;2023-05-12T08:54:08;97952.00;;;16.25;59.61
550;BME280;20066;48.764;9.176;2023-05-12T08:56:37;97943.78;;;16.28;59.03
550;BME280;20066;48.764;9.176;2023-05-12T08:59:08;97944.94;;;17.14;57.57
550;BME280;20066;48.764;9.176;2023-05-12T09:01:37;97953.22;;;17.73;55.75
550;BME280;20066;48.764;9.176;2023-05-12T09:04:08;97948.28;;;16.02;60.14
550;BME280;20066;48.764;9.176;2023-05-12T09:06:36;97945.63;;;16.89;59.10
550;BME280;20066;48.764;9.176;2023-05-12T09:09:05;97946.34;;;17.82;55.47
550;BME280;20066;48.764;9.176;2023-05-12T09:11:33;97944.59;;;17.88;54.66
550;BME280;20066;48.764;9.176;2023-05-12T09:14:03;97945.97;;;16.62;59.64
550;BME280;20066;48.764;9.176;2023-05-12T09:16:32;97947.16;;;17.03;58.09
550;BME280;20066;48.764;9.176;2023-05-12T09:19:02;97938.75;;;17.26;57.28
550;BME280;20066;48.764;9.176;2023-05-12T09:21:32;97945.41;;;17.50;56.39
550;BME280;20066;48.764;9.176;2023-05-12T09:24:01;97935.47;;;17.82;54.92
550;BME280;20066;48.764;9.176;2023-05-12T09:26:44;97953.00;;;17.43;55.69
550;BME280;20066;48.764;9.176;2023-05-12T09:29:13;97946.59;;;16.82;55.72
550;BME280;20066;48.764;9.176;2023-05-12T09:31:56;97940.94;;;17.69;54.40
550;BME280;20066;48.764;9.176;2023-05-12T09:34:26;97942.03;;;17.59;53.95
550;BME280;20066;48.764;9.176;2023-05-12T09:36:56;97944.28;;;17.10;55.22
550;BME280;20066;48.764;9.176;2023-05-12T09:39:24;97944.06;;;17.93;52.87
550;BME280;20066;48.764;9.176;2023-05-12T09:41:53;97938.75;;;17.26;53.94
550;BME280;20066;48.764;9.176;2023-05-12T09:44:22;97939.94;;;17.76;54.38
550;BME280;20066;48.764;9.176;2023-05-12T09:46:51;97941.16;;;18.56;52.00
550;BME280;20066;48.764;9.176;2023-05-12T09:49:19;97947.78;;;17.73;55.27
550;BME280;20066;48.764;9.176;2023-05-12T09:51:50;97942.56;;;17.28;56.18
550;BME280;20066;48.764;9.176;2023-05-12T09:54:29;97941.94;;;17.62;54.85
550;BME280;20066;48.764;9.176;2023-05-12T09:56:59;97937.84;;;17.80;55.27
550;BME280;20066;48.764;9.176;2023-05-12T09:59:30;97945.22;;;18.17;55.19
550;BME280;20066;48.764;9.176;2023-05-12T10:01:59;97935.59;;;18.60;52.34
550;BME280;20066;48.764;9.176;2023-05-12T10:04:29;97942.22;;;18.93;51.48
550;BME280;20066;48.764;9.176;2023-05-12T10:06:59;97943.19;;;17.70;54.29
550;BME280;20066;48.764;9.176;2023-05-12T10:09:31;97936.34;;;18.82;50.37
550;BME280;20066;48.764;9.176;2023-05-12T10:12:01;97944.31;;;17.60;54.70
550;BME280;20066;48.764;9.176;2023-05-12T10:14:30;97936.69;;;17.68;53.74
550;BME280;20066;48.764;9.176;2023-05-12T10:16:58;97935.97;;;18.49;51.90
550;BME280;20066;48.764;9.176;2023-05-12T10:19:29;97934.63;;;18.32;53.68
550;BME280;20066;48.764;9.176;2023-05-12T10:21:57;97939.34;;;18.53;52.83
550;BME280;20066;48.764;9.176;2023-05-12T10:24:25;97936.84;;;18.24;52.88
550;BME280;20066;48.764;9.176;2023-05-12T10:26:54;97936.84;;;19.11;51.10
550;BME280;20066;48.764;9.176;2023-05-12T10:29:24;97935.38;;;17.72;53.78
550;BME280;20066;48.764;9.176;2023-05-12T10:31:55;97939.44;;;18.49;52.07
550;BME280;20066;48.764;9.176;2023-05-12T10:34:28;97940.63;;;17.54;53.47
550;BME280;20066;48.764;9.176;2023-05-12T10:36:57;97939.22;;;20.57;45.93
550;BME280;20066;48.764;9.176;2023-05-12T10:39:27;97927.16;;;19.81;48.30
550;BME280;20066;48.764;9.176;2023-05-12T10:42:04;97932.66;;;19.19;49.82
550;BME280;20066;48.764;9.176;2023-05-12T10:44:34;97930.31;;;17.96;54.86
550;BME280;20066;48.764;9.176;2023-05-12T10:47:11;97930.59;;;19.33;51.17
550;BME280;20066;48.764;9.176;2023-05-12T10:49:41;97939.81;;;18.39;53.59
550;BME280;20066;48.764;9.176;2023-05-12T10:52:10;97931.81;;;16.83;56.62
550;BME280;20066;48.764;9.176;2023-05-12T10:54:42;97934.75;;;16.89;58.10
550;BME280;20066;48.764;9.176;2023-05-12T10:57:12;97938.97;;;16.48;58.39
550;BME280;20066;48.764;9.176;2023-05-12T10:59:49;97938.09;;;16.80;60.29
550;BME280;20066;48.764;9.176;2023-05-12T11:02:21;97942.03;;;16.50;61.06
550;BME280;20066;48.764;9.176;2023-05-12T11:04:55;97947.25;;;15.80;63.16
550;BME280;20066;48.764;9.176;2023-05-12T11:07:24;97945.41;;;15.61;66.52
550;BME280;20066;48.764;9.176;2023-05-12T11:09:54;97948.59;;;15.56;64.44
550;BME280;20066;48.764;9.176;2023-05-12T11:12:28;97944.50;;;15.31;66.09
550;BME280;20066;48.764;9.176;2023-05-12T11:15:01;97947.19;;;15.84;64.01
550;BME280;20066;48.764;9.176;2023-05-12T11:17:29;97953.31;;;16.49;62.03
550;BME280;20066;48.764;9.176;2023-05-12T11:19:57;97957.44;;;16.25;61.47
550;BME280;20066;48.764;9.176;2023-05-12T11:22:26;97953.63;;;15.90;62.57
550;BME280;20066;48.764;9.176;2023-05-12T11:24:54;97963.63;;;15.76;63.24
550;BME280;20066;48.764;9.176;2023-05-12T11:27:22;97957.50;;;15.00;67.77
550;BME280;20066;48.764;9.176;2023-05-12T11:29:57;97962.09;;;15.03;68.30
550;BME280;20066;48.764;9.176;2023-05-12T11:32:27;97974.25;;;14.56;69.57
550;BME280;20066;48.764;9.176;2023-05-12T11:35:06;97963.63;;;15.04;70.50
550;BME280;20066;48.764;9.176;2023-05-12T11:37:35;97969.66;;;14.73;74.21
550;BME280;20066;48.764;9.176;2023-05-12T11:40:12;97981.97;;;14.97;71.86
550;BME280;20066;48.764;9.176;2023-05-12T11:42:40;97976.56;;;15.17;73.42
550;BME280;20066;48.764;9.176;2023-05-12T11:45:18;97975.38;;;15.18;71.03
550;BME280;20066;48.764;9.176;2023-05-12T11:47:49;97975.03;;;15.52;71.95
550;BME280;20066;48.764;9.176;2023-05-12T11:50:22;97975.78;;;16.49;70.24
550;BME280;20066;48.764;9.176;2023-05-12T11:52:51;97973.09;;;15.52;73.60
550;BME280;20066;48.764;9.176;2023-05-12T11:55:21;97983.66;;;16.60;69.79
550;BME280;20066;48.764;9.176;2023-05-12T11:58:00;97979.00;;;17.31;66.03
550;BME280;20066;48.764;9.176;2023-05-12T12:00:31;97983.38;;;16.71;66.74
550;BME280;20066;48.764;9.176;2023-05-12T12:03:09;97979.34;;;17.04;68.92
550;BME280;20066;48.764;9.176;2023-05-12T12:05:38;97984.31;;;17.22;69.75
550;BME280;20066;48.764;9.176;2023-05-12T12:08:08;97988.56;;;16.20;69.99
550;BME280;20066;48.764;9.176;2023-05-12T12:10:38;97989.78;;;16.48;70.08
550;BME280;20066;48.764;9.176;2023-05-12T12:13:06;97987.28;;;16.25;68.58
550;BME280;20066;48.764;9.176;2023-05-12T12:15:34;97985.06;;;16.03;70.26
550;BME280;20066;48.764;9.176;2023-05-12T12:18:01;97988.03;;;17.79;64.63
550;BME280;20066;48.764;9.176;2023-05-12T12:20:31;97982.28;;;18.02;64.62
550;BME280;20066;48.764;9.176;2023-05-12T12:22:58;97978.34;;;18.84;59.74
550;BME280;20066;48.764;9.176;2023-05-12T12:25:26;97976.09;;;18.70;58.52
550;BME280;20066;48.764;9.176;2023-05-12T12:27:54;97985.63;;;19.09;58.99
550;BME280;20066;48.764;9.176;2023-05-12T12:30:22;97979.41;;;20.20;55.83
550;BME280;20066;48.764;9.176;2023-05-12T12:32:50;97981.13;;;19.46;57.95
550;BME280;20066;48.764;9.176;2023-05-12T12:35:18;97980.69;;;19.17;56.80
550;BME280;20066;48.764;9.176;2023-05-12T12:37:47;97985.94;;;20.13;54.36
550;BME280;20066;48.764;9.176;2023-05-12T12:40:18;97984.88;;;20.29;54.74
550;BME280;20066;48.764;9.176;2023-05-12T12:42:46;97979.84;;;20.18;54.32
550;BME280;20066;48.764;9.176;2023-05-12T12:45:13;97985.63;;;20.20;53.23
550;BME280;20066;48.764;9.176;2023-05-12T12:47:44;97980.16;;;21.39;49.48
550;BME280;20066;48.764;9.176;2023-05-12T12:50:12;97978.69;;;20.37;52.76
550;BME280;20066;48.764;9.176;2023-05-12T12:52:40;97975.47;;;20.21;51.36
550;BME280;20066;48.764;9.176;2023-05-12T12:55:10;97976.75;;;20.47;51.31
550;BME280;20066;48.764;9.176;2023-05-12T12:57:37;97980.09;;;19.84;51.80
550;BME280;20066;48.764;9.176;2023-05-12T13:00:06;97980.66;;;20.37;49.93
550;BME280;20066;48.764;9.176;2023-05-12T13:02:35;97974.88;;;18.71;53.81
550;BME280;20066;48.764;9.176;2023-05-12T13:05:04;97975.94;;;18.18;51.81
550;BME280;20066;48.764;9.176;2023-05-12T13:07:32;97969.50;;;19.55;50.77
550;BME280;20066;48.764;9.176;2023-05-12T13:10:00;97976.97;;;20.13;49.32
550;BME280;20066;48.764;9.176;2023-05-12T13:12:29;97973.09;;;20.59;47.30
550;BME280;20066;48.764;9.176;2023-05-12T13:14:57;97984.28;;;20.25;47.15
550;BME280;20066;48.764;9.176;2023-05-12T13:17:27;97977.91;;;20.28;45.85
550;BME280;20066;48.764;9.176;2023-05-12T13:19:55;97986.72;;;17.70;53.61
550;BME280;20066;48.764;9.176;2023-05-12T13:22:24;97980.09;;;17.59;55.15
550;BME280;20066;48.764;9.176;2023-05-12T13:24:52;97982.28;;;16.23;57.42
550;BME280;20066;48.764;9.176;2023-05-12T13:27:20;97985.66;;;16.43;57.94
550;BME280;20066;48.764;9.176;2023-05-12T13:29:49;97979.88;;;15.60;59.82
550;BME280;20066;48.764;9.176;2023-05-12T13:32:17;97982.16;;;15.78;59.92